createdAt,value
2023-11-18T00:00:57.000Z,18.06
2023-11-18T00:03:23.604Z,18.01
2023-11-18T00:05:50.176Z,17.98
2023-11-18T00:08:19.192Z,17.95
2023-11-18T00:10:46.047Z,17.91
2023-11-18T00:13:12.891Z,17.87
2023-11-18T00:15:39.552Z,17.83
2023-11-18T00:18:06.468Z,17.80
2023-11-18T00:20:37.030Z,17.75
2023-11-18T00:23:06.057Z,17.73
2023-11-18T00:25:35.077Z,17.72
2023-11-18T00:28:01.818Z,17.33
2023-11-18T00:30:29.423Z,17.40
2023-11-18T00:32:56.289Z,17.44
2023-11-18T00:35:22.935Z,17.27
2023-11-18T00:37:49.480Z,17.41
2023-11-18T00:40:19.083Z,17.44
2023-11-18T00:42:46.450Z,17.43
2023-11-18T00:45:15.630Z,17.40
2023-11-18T00:47:45.117Z,17.39
2023-11-18T00:50:11.797Z,17.39
2023-11-18T00:52:39.905Z,17.37
2023-11-18T00:55:08.420Z,17.33
2023-11-18T00:57:35.044Z,17.25
2023-11-18T01:00:01.897Z,17.30
2023-11-18T01:02:28.949Z,17.34
2023-11-18T01:04:56.614Z,17.35
2023-11-18T01:07:23.293Z,17.31
2023-11-18T01:09:50.188Z,17.29
2023-11-18T01:12:16.836Z,17.36
2023-11-18T01:14:43.489Z,17.30
2023-11-18T01:17:14.920Z,17.30
2023-11-18T01:19:41.885Z,17.28
2023-11-18T01:22:09.664Z,17.27
2023-11-18T01:24:36.450Z,17.26
2023-11-18T01:27:03.459Z,17.19
2023-11-18T01:29:30.057Z,17.19
2023-11-18T01:31:57.413Z,17.04
2023-11-18T01:34:24.244Z,16.95
2023-11-18T01:36:51.290Z,16.86
2023-11-18T01:39:21.122Z,16.79
2023-11-18T01:41:47.740Z,16.70
2023-11-18T01:44:14.938Z,16.65
2023-11-18T01:46:46.726Z,16.63
2023-11-18T01:49:15.630Z,16.56
2023-11-18T01:51:52.510Z,16.52
2023-11-18T01:54:20.673Z,16.44
2023-11-18T01:56:49.156Z,16.40
2023-11-18T01:59:19.928Z,16.34
2023-11-18T02:01:52.780Z,16.29
2023-11-18T02:04:21.546Z,16.24
2023-11-18T02:06:52.015Z,16.22
2023-11-18T02:09:20.360Z,16.16
2023-11-18T02:11:55.617Z,16.12
2023-11-18T02:14:27.496Z,16.09
2023-11-18T02:16:57.228Z,16.04
2023-11-18T02:19:26.084Z,16.02
2023-11-18T02:21:55.397Z,15.96
2023-11-18T02:24:31.665Z,15.96
2023-11-18T02:26:59.298Z,15.90
2023-11-18T02:29:27.412Z,15.89
2023-11-18T02:32:02.738Z,15.86
2023-11-18T02:34:33.033Z,15.80
2023-11-18T02:37:01.744Z,15.79
2023-11-18T02:39:34.544Z,15.72
2023-11-18T02:42:03.465Z,15.71
2023-11-18T02:44:33.259Z,15.63
2023-11-18T02:47:00.932Z,15.62
2023-11-18T02:49:28.908Z,15.63
2023-11-18T02:51:56.160Z,15.59
2023-11-18T02:54:23.313Z,15.53
2023-11-18T02:56:50.200Z,15.50
2023-11-18T02:59:17.656Z,15.47
2023-11-18T03:01:44.574Z,15.48
2023-11-18T03:04:11.825Z,15.46
2023-11-18T03:06:38.490Z,15.41
2023-11-18T03:09:08.439Z,15.38
2023-11-18T03:11:35.383Z,15.35
2023-11-18T03:14:02.315Z,15.35
2023-11-18T03:16:29.085Z,15.30
2023-11-18T03:18:56.166Z,15.26
2023-11-18T03:21:22.799Z,15.28
2023-11-18T03:23:49.362Z,15.21
2023-11-18T03:26:15.939Z,15.14
2023-11-18T03:28:42.631Z,15.14
2023-11-18T03:31:10.351Z,15.15
2023-11-18T03:33:37.035Z,15.09
2023-11-18T03:36:04.338Z,15.11
2023-11-18T03:38:30.923Z,15.10
2023-11-18T03:40:59.317Z,15.01
2023-11-18T03:43:25.944Z,15.02
2023-11-18T03:45:57.790Z,14.99
2023-11-18T03:48:24.812Z,14.96
2023-11-18T03:50:51.730Z,14.92
2023-11-18T03:53:18.286Z,14.93
2023-11-18T03:55:44.888Z,14.90
2023-11-18T03:58:11.509Z,14.89
2023-11-18T04:00:38.066Z,14.86
2023-11-18T04:03:07.766Z,14.81
2023-11-18T04:05:35.713Z,14.73
2023-11-18T04:08:02.861Z,14.69
2023-11-18T04:10:29.570Z,14.73
2023-11-18T04:12:56.835Z,14.74
2023-11-18T04:15:23.498Z,14.75
2023-11-18T04:17:50.124Z,14.67
2023-11-18T04:20:17.389Z,14.65
2023-11-18T04:22:45.010Z,14.66
2023-11-18T04:25:13.063Z,14.62
2023-11-18T04:27:41.161Z,14.62
2023-11-18T04:30:13.942Z,14.62
2023-11-18T04:32:43.578Z,14.69
2023-11-18T04:35:11.177Z,14.77
2023-11-18T04:37:37.948Z,14.75
2023-11-18T04:40:05.034Z,14.74
2023-11-18T04:42:31.639Z,14.84
2023-11-18T04:44:58.836Z,14.85
2023-11-18T04:47:26.492Z,14.86
2023-11-18T04:49:53.381Z,14.84
2023-11-18T04:52:20.059Z,14.81
2023-11-18T04:54:49.183Z,14.82
2023-11-18T04:57:15.948Z,14.79
2023-11-18T04:59:45.236Z,14.80
2023-11-18T05:02:11.844Z,14.77
2023-11-18T05:04:38.521Z,14.80
2023-11-18T05:07:05.504Z,14.76
2023-11-18T05:09:32.535Z,14.77
2023-11-18T05:12:00.045Z,14.76
2023-11-18T05:14:27.604Z,14.77
2023-11-18T05:16:54.820Z,14.75
2023-11-18T05:19:21.682Z,14.76
2023-11-18T05:21:50.732Z,14.76
2023-11-18T05:24:17.520Z,14.77
2023-11-18T05:26:44.113Z,14.73
2023-11-18T05:29:11.237Z,14.71
2023-11-18T05:31:38.495Z,14.69
2023-11-18T05:34:05.924Z,14.66
2023-11-18T05:36:38.534Z,14.68
2023-11-18T05:39:10.196Z,14.65
2023-11-18T05:41:37.626Z,14.63
2023-11-18T05:44:04.552Z,14.65
2023-11-18T05:46:31.533Z,14.61
2023-11-18T05:48:58.337Z,14.60
2023-11-18T05:51:26.778Z,14.57
2023-11-18T05:53:54.024Z,14.59
2023-11-18T05:56:23.863Z,14.60
2023-11-18T05:58:51.255Z,14.57
2023-11-18T06:01:18.668Z,14.57
2023-11-18T06:03:46.937Z,14.56
2023-11-18T06:06:15.163Z,14.56
2023-11-18T06:08:44.796Z,14.53
2023-11-18T06:11:15.401Z,14.52
2023-11-18T06:13:50.207Z,14.51
2023-11-18T06:16:25.516Z,14.49
2023-11-18T06:18:54.814Z,14.49
2023-11-18T06:21:28.080Z,14.49
2023-11-18T06:23:56.345Z,14.51
2023-11-18T06:26:23.226Z,14.51
2023-11-18T06:28:52.625Z,14.52
2023-11-18T06:31:19.951Z,14.52
2023-11-18T06:33:47.296Z,14.51
2023-11-18T06:36:23.042Z,14.51
2023-11-18T06:38:51.391Z,14.52
2023-11-18T06:41:21.670Z,14.52
2023-11-18T06:43:57.966Z,14.53
2023-11-18T06:46:26.248Z,14.52
2023-11-18T06:48:55.472Z,14.50
2023-11-18T06:51:25.836Z,14.47
2023-11-18T06:53:53.030Z,14.49
2023-11-18T06:56:19.543Z,14.45
2023-11-18T06:58:46.085Z,14.46
2023-11-18T07:01:16.577Z,14.46
2023-11-18T07:03:43.955Z,14.41
2023-11-18T07:06:11.174Z,14.45
2023-11-18T07:08:38.297Z,14.41
2023-11-18T07:11:05.212Z,14.43
2023-11-18T07:13:32.140Z,14.42
2023-11-18T07:15:58.767Z,14.42
2023-11-18T07:18:25.389Z,14.41
2023-11-18T07:20:53.384Z,14.44
2023-11-18T07:23:20.796Z,14.43
2023-11-18T07:25:47.397Z,14.38
2023-11-18T07:28:16.157Z,14.38
2023-11-18T07:30:43.836Z,14.39
2023-11-18T07:33:10.413Z,14.36
2023-11-18T07:35:37.986Z,14.36
2023-11-18T07:38:04.581Z,14.35
2023-11-18T07:40:31.142Z,14.36
2023-11-18T07:42:58.082Z,14.39
2023-11-18T07:45:24.765Z,14.38
2023-11-18T07:47:52.221Z,14.38
2023-11-18T07:50:21.012Z,14.39
2023-11-18T07:52:51.894Z,14.39
2023-11-18T07:55:19.548Z,14.29
2023-11-18T07:57:46.211Z,14.35
2023-11-18T08:00:16.275Z,14.34
2023-11-18T08:02:43.117Z,14.37
2023-11-18T08:05:14.406Z,14.27
2023-11-18T08:07:41.379Z,14.34
2023-11-18T08:10:13.835Z,14.26
2023-11-18T08:12:44.380Z,14.25
2023-11-18T08:15:10.949Z,14.23
2023-11-18T08:17:37.624Z,14.28
2023-11-18T08:20:16.899Z,14.32
2023-11-18T08:22:47.336Z,14.26
2023-11-18T08:25:15.876Z,14.28
2023-11-18T08:27:42.707Z,14.12
2023-11-18T08:30:13.884Z,14.23
2023-11-18T08:32:41.556Z,14.25
2023-11-18T08:35:08.934Z,14.24
2023-11-18T08:37:38.965Z,14.29
2023-11-18T08:40:16.264Z,14.25
2023-11-18T08:42:51.045Z,14.28
2023-11-18T08:45:30.366Z,14.23
2023-11-18T08:47:58.224Z,14.14
2023-11-18T08:50:26.245Z,14.16
2023-11-18T08:52:59.400Z,14.18
2023-11-18T08:55:40.996Z,14.15
2023-11-18T08:58:16.900Z,14.09
2023-11-18T09:00:47.132Z,14.09
2023-11-18T09:03:18.839Z,14.06
2023-11-18T09:05:57.876Z,14.11
2023-11-18T09:08:30.810Z,14.12
2023-11-18T09:10:58.235Z,13.79
2023-11-18T09:13:32.673Z,14.10
2023-11-18T09:16:05.283Z,14.10
2023-11-18T09:18:34.560Z,14.13
2023-11-18T09:21:02.626Z,13.97
2023-11-18T09:23:30.924Z,14.12
2023-11-18T09:25:57.519Z,14.16
2023-11-18T09:28:31.466Z,14.13
2023-11-18T09:30:58.917Z,14.17
2023-11-18T09:33:27.300Z,14.02
2023-11-18T09:35:59.536Z,14.17
2023-11-18T09:38:33.828Z,14.13
2023-11-18T09:41:03.912Z,14.16
2023-11-18T09:43:34.040Z,14.16
2023-11-18T09:46:15.311Z,14.04
2023-11-18T09:48:50.984Z,13.91
2023-11-18T09:51:25.226Z,13.97
2023-11-18T09:53:54.178Z,13.80
2023-11-18T09:56:38.988Z,14.00
2023-11-18T09:59:45.799Z,14.07
2023-11-18T10:02:13.458Z,14.12
2023-11-18T10:04:40.721Z,14.03
2023-11-18T10:07:12.295Z,13.77
2023-11-18T10:09:39.785Z,13.93
2023-11-18T10:12:09.655Z,13.98
2023-11-18T10:14:37.377Z,14.03
2023-11-18T10:17:08.415Z,14.09
2023-11-18T10:19:50.661Z,14.07
2023-11-18T10:22:33.597Z,14.06
2023-11-18T10:25:02.633Z,13.98
2023-11-18T10:27:29.734Z,13.93
2023-11-18T10:29:57.873Z,13.91
2023-11-18T10:32:28.558Z,13.95
2023-11-18T10:34:57.245Z,14.01
2023-11-18T10:37:24.638Z,14.01
2023-11-18T10:39:53.933Z,13.96
2023-11-18T10:42:20.620Z,13.95
2023-11-18T10:44:59.319Z,13.84
2023-11-18T10:47:30.159Z,13.84
2023-11-18T10:49:57.395Z,13.95
2023-11-18T10:52:26.953Z,13.93
2023-11-18T10:54:57.446Z,13.93
2023-11-18T10:57:25.146Z,13.90
2023-11-18T11:00:14.496Z,13.96
2023-11-18T11:02:45.447Z,13.87
2023-11-18T11:05:20.982Z,13.98
2023-11-18T11:07:50.054Z,13.91
2023-11-18T11:10:17.614Z,13.86
2023-11-18T11:12:54.787Z,13.90
2023-11-18T11:15:30.065Z,13.99
2023-11-18T11:18:11.009Z,13.97
2023-11-18T11:20:46.727Z,13.97
2023-11-18T11:23:28.010Z,13.99
2023-11-18T11:26:10.282Z,13.90
2023-11-18T11:28:59.061Z,13.93
2023-11-18T11:31:33.642Z,13.91
2023-11-18T11:34:07.877Z,13.97
2023-11-18T11:36:49.710Z,14.06
2023-11-18T11:39:21.017Z,14.18
2023-11-18T11:41:52.582Z,14.41
2023-11-18T11:44:21.472Z,14.45
2023-11-18T11:46:54.388Z,14.62
2023-11-18T11:49:23.249Z,14.82
2023-11-18T11:51:55.434Z,14.88
2023-11-18T11:54:30.346Z,15.02
2023-11-18T11:57:01.934Z,15.00
2023-11-18T11:59:47.862Z,15.12
2023-11-18T12:02:17.623Z,15.21
2023-11-18T12:04:53.639Z,15.13
2023-11-18T12:07:21.714Z,15.14
2023-11-18T12:09:48.763Z,15.25
2023-11-18T12:12:22.809Z,15.25
2023-11-18T12:19:37.335Z,15.40
2023-11-18T12:22:30.940Z,13.09
2023-11-18T12:25:00.304Z,12.92
2023-11-18T12:27:52.448Z,12.68
2023-11-18T12:30:26.905Z,12.37
2023-11-18T12:33:10.016Z,12.74
2023-11-18T12:36:14.739Z,12.25
2023-11-18T12:38:59.251Z,12.27
2023-11-18T12:41:39.556Z,12.17
2023-11-18T12:44:27.504Z,11.81
2023-11-18T12:46:56.605Z,11.87
2023-11-18T12:49:25.251Z,12.16
2023-11-18T12:51:53.841Z,12.44
2023-11-18T12:54:24.956Z,13.04
2023-11-18T12:56:55.318Z,12.24
2023-11-18T12:59:22.669Z,12.49
2023-11-18T13:01:58.735Z,12.38
2023-11-18T13:04:28.596Z,12.31
2023-11-18T13:06:56.393Z,12.27
2023-11-18T13:09:27.356Z,12.22
2023-11-18T13:12:01.343Z,12.29
2023-11-18T13:14:36.963Z,12.43
2023-11-18T13:17:07.061Z,11.46
2023-11-18T13:19:35.579Z,11.88
2023-11-18T13:22:09.022Z,11.61
2023-11-18T13:24:46.136Z,11.57
2023-11-18T13:27:20.383Z,11.38
2023-11-18T13:29:52.414Z,11.35
2023-11-18T13:32:24.248Z,11.56
2023-11-18T13:34:52.696Z,11.69
2023-11-18T13:37:23.253Z,11.40
2023-11-18T13:39:56.881Z,11.11
2023-11-18T13:42:25.109Z,11.08
2023-11-18T13:44:53.988Z,10.87
2023-11-18T13:47:21.316Z,11.02
2023-11-18T13:49:51.785Z,10.86
2023-11-18T13:52:20.062Z,11.17
2023-11-18T13:54:48.448Z,11.28
2023-11-18T13:57:15.140Z,10.84
2023-11-18T13:59:44.421Z,11.35
2023-11-18T14:02:11.442Z,11.10
2023-11-18T14:04:38.488Z,12.95
2023-11-18T14:07:06.436Z,13.70
2023-11-18T14:09:37.249Z,14.00
2023-11-18T14:12:07.452Z,14.22
2023-11-18T14:14:34.464Z,14.27
2023-11-18T14:17:02.248Z,14.42
2023-11-18T14:19:30.086Z,14.51
2023-11-18T14:21:57.283Z,14.61
2023-11-18T14:24:28.805Z,14.74
2023-11-18T14:26:56.118Z,14.80
2023-11-18T14:29:24.982Z,14.89
2023-11-18T14:31:53.659Z,14.94
2023-11-18T14:34:20.270Z,15.09
2023-11-18T14:36:47.102Z,15.19
2023-11-18T14:39:18.948Z,15.25
2023-11-18T14:41:46.891Z,15.28
2023-11-18T14:44:13.841Z,15.32
2023-11-18T14:46:42.246Z,15.39
2023-11-18T14:49:11.394Z,15.37
2023-11-18T14:51:38.445Z,15.38
2023-11-18T14:54:06.995Z,15.49
2023-11-18T14:56:36.098Z,15.57
2023-11-18T14:59:02.895Z,15.62
2023-11-18T15:01:30.349Z,15.59
2023-11-18T15:03:57.517Z,15.66
2023-11-18T15:06:28.501Z,15.71
2023-11-18T15:08:55.332Z,15.76
2023-11-18T15:11:23.061Z,15.46
2023-11-18T15:13:51.018Z,15.27
2023-11-18T15:16:20.043Z,15.27
2023-11-18T15:18:48.677Z,15.27
2023-11-18T15:21:16.352Z,15.15
2023-11-18T15:23:43.528Z,15.13
2023-11-18T15:26:11.058Z,15.44
2023-11-18T15:28:38.120Z,15.48
2023-11-18T15:31:05.455Z,15.54
2023-11-18T15:33:32.900Z,15.56
2023-11-18T15:36:00.151Z,15.54
2023-11-18T15:38:27.291Z,15.54
2023-11-18T15:40:54.635Z,15.50
2023-11-18T15:43:22.814Z,15.50
2023-11-18T15:45:49.655Z,15.50
2023-11-18T15:48:16.320Z,15.59
2023-11-18T15:50:42.995Z,15.58
2023-11-18T15:53:09.968Z,15.59
2023-11-18T15:55:39.378Z,15.65
2023-11-18T15:58:06.069Z,15.59
2023-11-18T16:00:33.127Z,15.60
2023-11-18T16:03:02.845Z,15.63
2023-11-18T16:05:35.675Z,15.79
2023-11-18T16:08:04.387Z,15.90
2023-11-18T16:10:31.469Z,15.89
2023-11-18T16:12:59.674Z,15.76
2023-11-18T16:15:28.108Z,15.61
2023-11-18T16:17:56.335Z,15.43
2023-11-18T16:20:25.203Z,15.25
2023-11-18T16:22:53.644Z,15.15
2023-11-18T16:25:23.884Z,15.10
2023-11-18T16:27:54.669Z,15.12
2023-11-18T16:30:25.875Z,15.17
2023-11-18T16:32:53.381Z,15.21
2023-11-18T16:35:21.230Z,15.06
2023-11-18T16:37:48.856Z,14.98
2023-11-18T16:40:16.785Z,14.99
2023-11-18T16:42:47.245Z,14.96
2023-11-18T16:45:14.857Z,14.94
2023-11-18T16:47:42.757Z,14.95
2023-11-18T16:50:11.641Z,14.97
2023-11-18T16:52:41.580Z,14.98
2023-11-18T16:55:12.122Z,14.96
2023-11-18T16:57:38.994Z,14.93
2023-11-18T17:00:25.618Z,14.95
2023-11-18T17:02:59.888Z,14.95
2023-11-18T17:05:32.648Z,14.87
2023-11-18T17:08:00.978Z,14.88
2023-11-18T17:10:28.312Z,14.83
2023-11-18T17:12:55.435Z,14.83
2023-11-18T17:15:22.226Z,14.84
2023-11-18T17:18:16.732Z,14.82
2023-11-18T17:20:43.284Z,14.84
2023-11-18T17:23:09.967Z,14.88
2023-11-18T17:25:36.508Z,14.86
2023-11-18T17:28:05.676Z,14.88
2023-11-18T17:30:38.033Z,14.84
2023-11-18T17:33:04.902Z,14.86
2023-11-18T17:35:31.512Z,14.82
2023-11-18T17:37:58.215Z,14.86
2023-11-18T17:40:24.828Z,14.80
2023-11-18T17:42:54.550Z,14.81
2023-11-18T17:45:21.666Z,14.79
2023-11-18T17:47:48.351Z,14.77
2023-11-18T17:50:16.477Z,14.77
2023-11-18T17:52:47.628Z,14.77
2023-11-18T17:55:14.508Z,14.77
2023-11-18T17:57:45.036Z,14.75
2023-11-18T18:00:13.927Z,14.72
2023-11-18T18:02:41.442Z,14.83
2023-11-18T18:05:09.213Z,14.95
2023-11-18T18:07:36.064Z,14.93
2023-11-18T18:10:02.619Z,14.94
2023-11-18T18:12:29.381Z,14.97
2023-11-18T18:14:57.028Z,15.02
2023-11-18T18:17:23.850Z,14.96
2023-11-18T18:19:51.252Z,14.91
2023-11-18T18:22:18.145Z,14.88
2023-11-18T18:24:44.844Z,14.89
2023-11-18T18:27:12.387Z,14.89
2023-11-18T18:29:39.087Z,14.90
2023-11-18T18:32:06.462Z,14.92
2023-11-18T18:34:33.070Z,14.92
2023-11-18T18:36:59.972Z,14.93
2023-11-18T18:39:26.632Z,14.92
2023-11-18T18:41:53.189Z,14.86
2023-11-18T18:44:19.861Z,14.84
2023-11-18T18:46:46.509Z,14.83
2023-11-18T18:49:13.166Z,14.78
2023-11-18T18:51:39.940Z,14.79
2023-11-18T18:54:06.525Z,14.73
2023-11-18T18:56:33.124Z,14.74
2023-11-18T18:58:59.780Z,14.67
2023-11-18T19:01:27.721Z,14.66
2023-11-18T19:03:54.525Z,14.77
2023-11-18T19:06:21.267Z,14.75
2023-11-18T19:08:47.897Z,14.73
2023-11-18T19:11:14.489Z,14.73
2023-11-18T19:13:42.611Z,14.68
2023-11-18T19:16:10.885Z,14.66
2023-11-18T19:18:38.367Z,14.73
2023-11-18T19:21:05.450Z,14.72
2023-11-18T19:23:32.058Z,14.64
2023-11-18T19:25:58.719Z,14.63
2023-11-18T19:28:25.380Z,14.61
2023-11-18T19:30:51.993Z,14.66
2023-11-18T19:33:18.571Z,14.59
2023-11-18T19:35:45.197Z,14.55
2023-11-18T19:38:11.867Z,14.54
2023-11-18T19:40:38.406Z,14.61
2023-11-18T19:43:06.979Z,14.56
2023-11-18T19:45:34.425Z,14.53
2023-11-18T19:48:01.605Z,14.62
2023-11-18T19:50:28.621Z,14.65
2023-11-18T19:52:55.229Z,14.67
2023-11-18T19:55:22.031Z,14.69
2023-11-18T19:57:48.724Z,14.68
2023-11-18T20:00:19.325Z,14.71
2023-11-18T20:02:46.634Z,14.72
2023-11-18T20:05:13.973Z,14.66
2023-11-18T20:07:40.904Z,14.64
2023-11-18T20:10:09.757Z,14.65
2023-11-18T20:12:36.654Z,14.66
2023-11-18T20:15:03.606Z,14.67
2023-11-18T20:17:33.322Z,14.65
2023-11-18T20:20:00.630Z,14.64
2023-11-18T20:22:27.225Z,14.65
2023-11-18T20:24:53.747Z,14.63
2023-11-18T20:27:20.688Z,14.74
2023-11-18T20:29:47.303Z,14.74
2023-11-18T20:32:14.037Z,14.74
2023-11-18T20:34:40.639Z,14.73
2023-11-18T20:37:07.200Z,14.79
2023-11-18T20:39:34.842Z,14.83
2023-11-18T20:42:01.558Z,14.86
2023-11-18T20:44:28.965Z,14.90
2023-11-18T20:47:04.164Z,14.89
2023-11-18T20:49:30.766Z,14.80
2023-11-18T20:51:58.502Z,14.82
2023-11-18T20:54:25.115Z,14.85
2023-11-18T20:56:51.687Z,14.86
2023-11-18T20:59:19.654Z,14.88
2023-11-18T21:01:47.317Z,15.08
2023-11-18T21:04:13.996Z,15.09
2023-11-18T21:06:40.775Z,15.08
2023-11-18T21:09:07.648Z,15.12
2023-11-18T21:11:34.286Z,15.10
2023-11-18T21:14:00.897Z,15.01
2023-11-18T21:16:27.537Z,14.95
2023-11-18T21:18:54.145Z,14.92
2023-11-18T21:21:20.755Z,14.90
2023-11-18T21:23:49.053Z,14.87
2023-11-18T21:26:15.750Z,14.87
2023-11-18T21:28:42.317Z,14.94
2023-11-18T21:31:09.080Z,15.25
2023-11-18T21:33:38.660Z,15.33
2023-11-18T21:36:05.760Z,15.36
2023-11-18T21:38:32.348Z,15.38
2023-11-18T21:40:58.908Z,15.40
2023-11-18T21:43:25.481Z,15.41
2023-11-18T21:45:52.780Z,15.46
2023-11-18T21:48:22.142Z,15.48
2023-11-18T21:50:49.814Z,15.44
2023-11-18T21:53:16.403Z,15.37
2023-11-18T21:55:43.678Z,15.33
2023-11-18T21:58:10.260Z,15.31
2023-11-18T22:00:45.090Z,15.27
2023-11-18T22:03:13.868Z,15.22
2023-11-18T22:05:40.566Z,15.22
2023-11-18T22:08:08.786Z,15.19
2023-11-18T22:10:35.535Z,15.17
2023-11-18T22:13:02.123Z,15.15
2023-11-18T22:15:28.646Z,15.13
2023-11-18T22:17:55.225Z,15.09
2023-11-18T22:20:25.984Z,15.06
2023-11-18T22:22:52.840Z,15.04
2023-11-18T22:25:19.813Z,15.04
2023-11-18T22:27:48.424Z,15.01
2023-11-18T22:30:17.210Z,14.99
2023-11-18T22:32:44.095Z,14.99
2023-11-18T22:35:10.846Z,14.95
2023-11-18T22:37:37.419Z,14.94
2023-11-18T22:40:10.085Z,14.94
2023-11-18T22:42:38.981Z,14.93
2023-11-18T22:45:06.116Z,14.91
2023-11-18T22:47:32.734Z,14.90
2023-11-18T22:50:01.016Z,14.89
2023-11-18T22:52:27.935Z,14.89
2023-11-18T22:54:54.582Z,14.86
2023-11-18T22:57:21.071Z,14.85
2023-11-18T22:59:47.697Z,14.84
2023-11-18T23:02:17.461Z,14.80
2023-11-18T23:04:46.499Z,14.84
2023-11-18T23:07:15.698Z,14.83
2023-11-18T23:09:42.688Z,14.81
2023-11-18T23:12:10.608Z,14.81
2023-11-18T23:14:38.039Z,14.81
2023-11-18T23:19:41.640Z,14.80
2023-11-18T23:22:14.456Z,14.82
2023-11-18T23:24:40.999Z,14.78
2023-11-18T23:27:08.239Z,14.77
2023-11-18T23:29:34.857Z,14.80
2023-11-18T23:32:01.474Z,14.79
2023-11-18T23:34:28.100Z,14.78
2023-11-18T23:36:54.760Z,14.78
2023-11-18T23:39:29.486Z,14.77
2023-11-18T23:41:56.829Z,14.74
2023-11-18T23:44:25.387Z,14.75
2023-11-18T23:46:53.291Z,14.76
2023-11-18T23:49:20.207Z,14.76
2023-11-18T23:51:47.340Z,14.77
2023-11-18T23:54:14.121Z,14.81
2023-11-18T23:56:40.849Z,14.84
2023-11-18T23:59:08.302Z,15.02
